Aviation Digital Data Service (ADDS)

Output produced by METARs form (0732 UTC 30 October 2020)
found at http://www.aviationweather.gov/metar/data/
 
METAR text: UTDK 300500Z VRB01MPS 8000 NSC 13/M01 Q1026 R01/09//70 RMK QFE712/0949
Conditions at: UTDK (KOLUB , TJ) observed 0500 UTC 30 October 2020
Temperature: 13.0°C (55°F)
Dewpoint: -1.0°C (30°F) [RH = 38%]
Pressure (altimeter): 30.30 inches Hg (1026.0 mb)
Winds: variable direction winds at 2 MPH (2 knots; 1.0 m/s)
Visibility: 5 miles ( 8 km)
Ceiling: at least 12,000 feet AGL
Clouds: sky clear below 12,000 feet AGL
Weather: no significant weather observed at this time

METAR text: UTDK 300430Z VRB01MPS 9000 NSC 12/M02 Q1027 R01/09//70 RMK QFE712/0949
Conditions at: UTDK (KOLUB , TJ) observed 0430 UTC 30 October 2020
Temperature: 12.0°C (54°F)
Dewpoint: -2.0°C (28°F) [RH = 38%]
Pressure (altimeter): 30.32 inches Hg (1027.0 mb)
Winds: variable direction winds at 2 MPH (2 knots; 1.0 m/s)
Visibility: 6 miles ( 9 km)
Ceiling: at least 12,000 feet AGL
Clouds: sky clear below 12,000 feet AGL
Weather: no significant weather observed at this time

METAR text: UTDK 300400Z VRB01MPS 9000 NSC 11/M03 Q1027 R01/09//70 RMK QFE712/0949
Conditions at: UTDK (KOLUB , TJ) observed 0400 UTC 30 October 2020
Temperature: 11.0°C (52°F)
Dewpoint: -3.0°C (27°F) [RH = 37%]
Pressure (altimeter): 30.32 inches Hg (1027.0 mb)
Winds: variable direction winds at 2 MPH (2 knots; 1.0 m/s)
Visibility: 6 miles ( 9 km)
Ceiling: at least 12,000 feet AGL
Clouds: sky clear below 12,000 feet AGL
Weather: no significant weather observed at this time

METAR text: UTDK 300330Z 02002MPS 9999 NSC 09/M02 Q1027 R01/09//70 RMK QFE712/0949
Conditions at: UTDK (KOLUB , TJ) observed 0330 UTC 30 October 2020
Temperature: 9.0°C (48°F)
Dewpoint: -2.0°C (28°F) [RH = 46%]
Pressure (altimeter): 30.32 inches Hg (1027.0 mb)
Winds: from the NNE (20 degrees) at 5 MPH (4 knots; 2.1 m/s)
Visibility: 6 or more miles (10+ km)
Ceiling: at least 12,000 feet AGL
Clouds: sky clear below 12,000 feet AGL
Weather: no significant weather observed at this time

METAR text: UTDK 300300Z 02002MPS 9999 NSC 08/M03 Q1026 R01/09//70 RMK QFE712/0949
Conditions at: UTDK (KOLUB , TJ) observed 0300 UTC 30 October 2020
Temperature: 8.0°C (46°F)
Dewpoint: -3.0°C (27°F) [RH = 46%]
Pressure (altimeter): 30.30 inches Hg (1026.0 mb)
Winds: from the NNE (20 degrees) at 5 MPH (4 knots; 2.1 m/s)
Visibility: 6 or more miles (10+ km)
Ceiling: at least 12,000 feet AGL
Clouds: sky clear below 12,000 feet AGL
Weather: no significant weather observed at this time

METAR text: UTDK 300230Z 03003MPS 9999 NSC 07/M03 Q1026 R01/09//70 RMK QFE712/0949
Conditions at: UTDK (KOLUB , TJ) observed 0230 UTC 30 October 2020
Temperature: 7.0°C (45°F)
Dewpoint: -3.0°C (27°F) [RH = 49%]
Pressure (altimeter): 30.30 inches Hg (1026.0 mb)
Winds: from the NNE (30 degrees) at 7 MPH (6 knots; 3.1 m/s)
Visibility: 6 or more miles (10+ km)
Ceiling: at least 12,000 feet AGL
Clouds: sky clear below 12,000 feet AGL
Weather: no significant weather observed at this time

METAR text: UTDK 300200Z 03003MPS 9999 NSC 07/M03 Q1026 R01/09//70 RMK QFE711/0949
Conditions at: UTDK (KOLUB , TJ) observed 0200 UTC 30 October 2020
Temperature: 7.0°C (45°F)
Dewpoint: -3.0°C (27°F) [RH = 49%]
Pressure (altimeter): 30.30 inches Hg (1026.0 mb)
Winds: from the NNE (30 degrees) at 7 MPH (6 knots; 3.1 m/s)
Visibility: 6 or more miles (10+ km)
Ceiling: at least 12,000 feet AGL
Clouds: sky clear below 12,000 feet AGL
Weather: no significant weather observed at this time

METAR text: UTDK 300130Z 03003MPS 9999 NSC 06/M03 Q1026 R01/09//70 RMK QFE711/0949
Conditions at: UTDK (KOLUB , TJ) observed 0130 UTC 30 October 2020
Temperature: 6.0°C (43°F)
Dewpoint: -3.0°C (27°F) [RH = 52%]
Pressure (altimeter): 30.30 inches Hg (1026.0 mb)
Winds: from the NNE (30 degrees) at 7 MPH (6 knots; 3.1 m/s)
Visibility: 6 or more miles (10+ km)
Ceiling: at least 12,000 feet AGL
Clouds: sky clear below 12,000 feet AGL
Weather: no significant weather observed at this time

METAR text: UTDK 300100Z 02004MPS 9999 NSC 06/M02 Q1026 R01/09//70 RMK QFE711/0949
Conditions at: UTDK (KOLUB , TJ) observed 0100 UTC 30 October 2020
Temperature: 6.0°C (43°F)
Dewpoint: -2.0°C (28°F) [RH = 56%]
Pressure (altimeter): 30.30 inches Hg (1026.0 mb)
Winds: from the NNE (20 degrees) at 9 MPH (8 knots; 4.1 m/s)
Visibility: 6 or more miles (10+ km)
Ceiling: at least 12,000 feet AGL
Clouds: sky clear below 12,000 feet AGL
Weather: no significant weather observed at this time

METAR text: UTDK 300030Z 02003MPS 9999 NSC 07/M02 Q1026 R01/09//70 RMK QFE711/0949
Conditions at: UTDK (KOLUB , TJ) observed 0030 UTC 30 October 2020
Temperature: 7.0°C (45°F)
Dewpoint: -2.0°C (28°F) [RH = 53%]
Pressure (altimeter): 30.30 inches Hg (1026.0 mb)
Winds: from the NNE (20 degrees) at 7 MPH (6 knots; 3.1 m/s)
Visibility: 6 or more miles (10+ km)
Ceiling: at least 12,000 feet AGL
Clouds: sky clear below 12,000 feet AGL
Weather: no significant weather observed at this time

METAR text: UTDK 300000Z 03002MPS 9999 NSC 07/M02 Q1026 R01/09//70 RMK QFE711/0949
Conditions at: UTDK (KOLUB , TJ) observed 0000 UTC 30 October 2020
Temperature: 7.0°C (45°F)
Dewpoint: -2.0°C (28°F) [RH = 53%]
Pressure (altimeter): 30.30 inches Hg (1026.0 mb)
Winds: from the NNE (30 degrees) at 5 MPH (4 knots; 2.1 m/s)
Visibility: 6 or more miles (10+ km)
Ceiling: at least 12,000 feet AGL
Clouds: sky clear below 12,000 feet AGL
Weather: no significant weather observed at this time

METAR text: UTDK 292330Z 03003MPS 9999 NSC 08/M03 Q1026 R01/09//70 RMK QFE711/0949
Conditions at: UTDK (KOLUB , TJ) observed 2330 UTC 29 October 2020
Temperature: 8.0°C (46°F)
Dewpoint: -3.0°C (27°F) [RH = 46%]
Pressure (altimeter): 30.30 inches Hg (1026.0 mb)
Winds: from the NNE (30 degrees) at 7 MPH (6 knots; 3.1 m/s)
Visibility: 6 or more miles (10+ km)
Ceiling: at least 12,000 feet AGL
Clouds: sky clear below 12,000 feet AGL
Weather: no significant weather observed at this time

METAR text: UTDK 292300Z 02005MPS 9999 NSC 07/M02 Q1026 R01/09//70 RMK QFE711/0949
Conditions at: UTDK (KOLUB , TJ) observed 2300 UTC 29 October 2020
Temperature: 7.0°C (45°F)
Dewpoint: -2.0°C (28°F) [RH = 53%]
Pressure (altimeter): 30.30 inches Hg (1026.0 mb)
Winds: from the NNE (20 degrees) at 12 MPH (10 knots; 5.1 m/s)
Visibility: 6 or more miles (10+ km)
Ceiling: at least 12,000 feet AGL
Clouds: sky clear below 12,000 feet AGL
Weather: no significant weather observed at this time

METAR text: UTDK 292230Z 02005MPS 9999 NSC 08/M02 Q1026 R01/09//70 RMK QFE712/0949
Conditions at: UTDK (KOLUB , TJ) observed 2230 UTC 29 October 2020
Temperature: 8.0°C (46°F)
Dewpoint: -2.0°C (28°F) [RH = 49%]
Pressure (altimeter): 30.30 inches Hg (1026.0 mb)
Winds: from the NNE (20 degrees) at 12 MPH (10 knots; 5.1 m/s)
Visibility: 6 or more miles (10+ km)
Ceiling: at least 12,000 feet AGL
Clouds: sky clear below 12,000 feet AGL
Weather: no significant weather observed at this time

METAR text: UTDK 292200Z 02005MPS 9999 NSC 07/M02 Q1027 R01/09//70 RMK QFE712/0949
Conditions at: UTDK (KOLUB , TJ) observed 2200 UTC 29 October 2020
Temperature: 7.0°C (45°F)
Dewpoint: -2.0°C (28°F) [RH = 53%]
Pressure (altimeter): 30.32 inches Hg (1027.0 mb)
Winds: from the NNE (20 degrees) at 12 MPH (10 knots; 5.1 m/s)
Visibility: 6 or more miles (10+ km)
Ceiling: at least 12,000 feet AGL
Clouds: sky clear below 12,000 feet AGL
Weather: no significant weather observed at this time

METAR text: UTDK 292130Z 02004MPS 9999 NSC 07/M02 Q1027 R01/09//70 RMK QFE712/0949
Conditions at: UTDK (KOLUB , TJ) observed 2130 UTC 29 October 2020
Temperature: 7.0°C (45°F)
Dewpoint: -2.0°C (28°F) [RH = 53%]
Pressure (altimeter): 30.32 inches Hg (1027.0 mb)
Winds: from the NNE (20 degrees) at 9 MPH (8 knots; 4.1 m/s)
Visibility: 6 or more miles (10+ km)
Ceiling: at least 12,000 feet AGL
Clouds: sky clear below 12,000 feet AGL
Weather: no significant weather observed at this time

METAR text: UTDK 292100Z 02005MPS 9999 NSC 08/M02 Q1027 R01/09//70 RMK QFE712/0949
Conditions at: UTDK (KOLUB , TJ) observed 2100 UTC 29 October 2020
Temperature: 8.0°C (46°F)
Dewpoint: -2.0°C (28°F) [RH = 49%]
Pressure (altimeter): 30.32 inches Hg (1027.0 mb)
Winds: from the NNE (20 degrees) at 12 MPH (10 knots; 5.1 m/s)
Visibility: 6 or more miles (10+ km)
Ceiling: at least 12,000 feet AGL
Clouds: sky clear below 12,000 feet AGL
Weather: no significant weather observed at this time

METAR text: UTDK 292030Z 02005MPS 9999 NSC 07/M01 Q1027 R01/09//70 RMK QFE712/0950
Conditions at: UTDK (KOLUB , TJ) observed 2030 UTC 29 October 2020
Temperature: 7.0°C (45°F)
Dewpoint: -1.0°C (30°F) [RH = 57%]
Pressure (altimeter): 30.32 inches Hg (1027.0 mb)
Winds: from the NNE (20 degrees) at 12 MPH (10 knots; 5.1 m/s)
Visibility: 6 or more miles (10+ km)
Ceiling: at least 12,000 feet AGL
Clouds: sky clear below 12,000 feet AGL
Weather: no significant weather observed at this time

METAR text: UTDK 292000Z 02005MPS 9000 NSC 08/M01 Q1027 R01/09//70 RMK QFE712/0950
Conditions at: UTDK (KOLUB , TJ) observed 2000 UTC 29 October 2020
Temperature: 8.0°C (46°F)
Dewpoint: -1.0°C (30°F) [RH = 53%]
Pressure (altimeter): 30.32 inches Hg (1027.0 mb)
Winds: from the NNE (20 degrees) at 12 MPH (10 knots; 5.1 m/s)
Visibility: 6 miles ( 9 km)
Ceiling: at least 12,000 feet AGL
Clouds: sky clear below 12,000 feet AGL
Weather: no significant weather observed at this time

METAR text: UTDK 291930Z 02005MPS 9000 NSC 08/M01 Q1027 R01/09//70 RMK QFE712/0950
Conditions at: UTDK (KOLUB , TJ) observed 1930 UTC 29 October 2020
Temperature: 8.0°C (46°F)
Dewpoint: -1.0°C (30°F) [RH = 53%]
Pressure (altimeter): 30.32 inches Hg (1027.0 mb)
Winds: from the NNE (20 degrees) at 12 MPH (10 knots; 5.1 m/s)
Visibility: 6 miles ( 9 km)
Ceiling: at least 12,000 feet AGL
Clouds: sky clear below 12,000 feet AGL
Weather: no significant weather observed at this time

METAR text: UTDK 291900Z 02005MPS 9000 NSC 08/M01 Q1027 R01/09//70 RMK QFE712/0950
Conditions at: UTDK (KOLUB , TJ) observed 1900 UTC 29 October 2020
Temperature: 8.0°C (46°F)
Dewpoint: -1.0°C (30°F) [RH = 53%]
Pressure (altimeter): 30.32 inches Hg (1027.0 mb)
Winds: from the NNE (20 degrees) at 12 MPH (10 knots; 5.1 m/s)
Visibility: 6 miles ( 9 km)
Ceiling: at least 12,000 feet AGL
Clouds: sky clear below 12,000 feet AGL
Weather: no significant weather observed at this time

METAR text: UTDK 291830Z 02004MPS 8000 NSC 09/M02 Q1028 R01/09//70 RMK QFE713/0950
Conditions at: UTDK (KOLUB , TJ) observed 1830 UTC 29 October 2020
Temperature: 9.0°C (48°F)
Dewpoint: -2.0°C (28°F) [RH = 46%]
Pressure (altimeter): 30.35 inches Hg (1028.0 mb)
Winds: from the NNE (20 degrees) at 9 MPH (8 knots; 4.1 m/s)
Visibility: 5 miles ( 8 km)
Ceiling: at least 12,000 feet AGL
Clouds: sky clear below 12,000 feet AGL
Weather: no significant weather observed at this time

METAR text: UTDK 291800Z 02004MPS 7000 NSC 08/M01 Q1028 R01/09//70 RMK QFE713/0950
Conditions at: UTDK (KOLUB , TJ) observed 1800 UTC 29 October 2020
Temperature: 8.0°C (46°F)
Dewpoint: -1.0°C (30°F) [RH = 53%]
Pressure (altimeter): 30.35 inches Hg (1028.0 mb)
Winds: from the NNE (20 degrees) at 9 MPH (8 knots; 4.1 m/s)
Visibility: 4 miles ( 7 km)
Ceiling: at least 12,000 feet AGL
Clouds: sky clear below 12,000 feet AGL
Weather: no significant weather observed at this time

METAR text: UTDK 291730Z 02004MPS 8000 NSC 08/M01 Q1028 R01/09//70 RMK QFE713/0950
Conditions at: UTDK (KOLUB , TJ) observed 1730 UTC 29 October 2020
Temperature: 8.0°C (46°F)
Dewpoint: -1.0°C (30°F) [RH = 53%]
Pressure (altimeter): 30.35 inches Hg (1028.0 mb)
Winds: from the NNE (20 degrees) at 9 MPH (8 knots; 4.1 m/s)
Visibility: 5 miles ( 8 km)
Ceiling: at least 12,000 feet AGL
Clouds: sky clear below 12,000 feet AGL
Weather: no significant weather observed at this time

METAR text: UTDK 291700Z 02002MPS 7000 NSC 09/M01 Q1028 R01/09//70 RMK QFE713/0950
Conditions at: UTDK (KOLUB , TJ) observed 1700 UTC 29 October 2020
Temperature: 9.0°C (48°F)
Dewpoint: -1.0°C (30°F) [RH = 49%]
Pressure (altimeter): 30.35 inches Hg (1028.0 mb)
Winds: from the NNE (20 degrees) at 5 MPH (4 knots; 2.1 m/s)
Visibility: 4 miles ( 7 km)
Ceiling: at least 12,000 feet AGL
Clouds: sky clear below 12,000 feet AGL
Weather: no significant weather observed at this time

METAR text: UTDK 291630Z 03002MPS 7000 NSC 09/M01 Q1028 R01/09//70 RMK QFE713/0950
Conditions at: UTDK (KOLUB , TJ) observed 1630 UTC 29 October 2020
Temperature: 9.0°C (48°F)
Dewpoint: -1.0°C (30°F) [RH = 49%]
Pressure (altimeter): 30.35 inches Hg (1028.0 mb)
Winds: from the NNE (30 degrees) at 5 MPH (4 knots; 2.1 m/s)
Visibility: 4 miles ( 7 km)
Ceiling: at least 12,000 feet AGL
Clouds: sky clear below 12,000 feet AGL
Weather: no significant weather observed at this time

METAR text: UTDK 291600Z 03002MPS 7000 NSC 10/M01 Q1028 R01/09//70 RMK QFE713/0950
Conditions at: UTDK (KOLUB , TJ) observed 1600 UTC 29 October 2020
Temperature: 10.0°C (50°F)
Dewpoint: -1.0°C (30°F) [RH = 46%]
Pressure (altimeter): 30.35 inches Hg (1028.0 mb)
Winds: from the NNE (30 degrees) at 5 MPH (4 knots; 2.1 m/s)
Visibility: 4 miles ( 7 km)
Ceiling: at least 12,000 feet AGL
Clouds: sky clear below 12,000 feet AGL
Weather: no significant weather observed at this time

METAR text: UTDK 291530Z 02003MPS 7000 NSC 10/M01 Q1028 R01/09//70 RMK QFE713/0950
Conditions at: UTDK (KOLUB , TJ) observed 1530 UTC 29 October 2020
Temperature: 10.0°C (50°F)
Dewpoint: -1.0°C (30°F) [RH = 46%]
Pressure (altimeter): 30.35 inches Hg (1028.0 mb)
Winds: from the NNE (20 degrees) at 7 MPH (6 knots; 3.1 m/s)
Visibility: 4 miles ( 7 km)
Ceiling: at least 12,000 feet AGL
Clouds: sky clear below 12,000 feet AGL
Weather: no significant weather observed at this time

METAR text: UTDK 291500Z 02003MPS 7000 NSC 11/M01 Q1028 R01/09//70 RMK QFE713/0950
Conditions at: UTDK (KOLUB , TJ) observed 1500 UTC 29 October 2020
Temperature: 11.0°C (52°F)
Dewpoint: -1.0°C (30°F) [RH = 43%]
Pressure (altimeter): 30.35 inches Hg (1028.0 mb)
Winds: from the NNE (20 degrees) at 7 MPH (6 knots; 3.1 m/s)
Visibility: 4 miles ( 7 km)
Ceiling: at least 12,000 feet AGL
Clouds: sky clear below 12,000 feet AGL
Weather: no significant weather observed at this time

METAR text: UTDK 291430Z 03002MPS 7000 NSC 10/M01 Q1028 R01/09//70 RMK QFE713/0950
Conditions at: UTDK (KOLUB , TJ) observed 1430 UTC 29 October 2020
Temperature: 10.0°C (50°F)
Dewpoint: -1.0°C (30°F) [RH = 46%]
Pressure (altimeter): 30.35 inches Hg (1028.0 mb)
Winds: from the NNE (30 degrees) at 5 MPH (4 knots; 2.1 m/s)
Visibility: 4 miles ( 7 km)
Ceiling: at least 12,000 feet AGL
Clouds: sky clear below 12,000 feet AGL
Weather: no significant weather observed at this time

METAR text: UTDK 291400Z 04002MPS 7000 NSC 12/M01 Q1028 R01/09//70 RMK QFE713/0950
Conditions at: UTDK (KOLUB , TJ) observed 1400 UTC 29 October 2020
Temperature: 12.0°C (54°F)
Dewpoint: -1.0°C (30°F) [RH = 40%]
Pressure (altimeter): 30.35 inches Hg (1028.0 mb)
Winds: from the NE (40 degrees) at 5 MPH (4 knots; 2.1 m/s)
Visibility: 4 miles ( 7 km)
Ceiling: at least 12,000 feet AGL
Clouds: sky clear below 12,000 feet AGL
Weather: no significant weather observed at this time

METAR text: UTDK 291330Z 04002MPS 7000 NSC 12/M00 Q1028 R01/09//70 RMK QFE713/0950
Conditions at: UTDK (KOLUB , TJ) observed 1330 UTC 29 October 2020
Temperature: 12.0°C (54°F)
Dewpoint: 0.0°C (32°F) [RH = 44%]
Pressure (altimeter): 30.35 inches Hg (1028.0 mb)
Winds: from the NE (40 degrees) at 5 MPH (4 knots; 2.1 m/s)
Visibility: 4 miles ( 7 km)
Ceiling: at least 12,000 feet AGL
Clouds: sky clear below 12,000 feet AGL
Weather: no significant weather observed at this time

METAR text: UTDK 291300Z 08002MPS 6000 NSC 13/M00 Q1028 R01/09//70 RMK QFE713/0950
Conditions at: UTDK (KOLUB , TJ) observed 1300 UTC 29 October 2020
Temperature: 13.0°C (55°F)
Dewpoint: 0.0°C (32°F) [RH = 41%]
Pressure (altimeter): 30.35 inches Hg (1028.0 mb)
Winds: from the E (80 degrees) at 5 MPH (4 knots; 2.1 m/s)
Visibility: 4 miles ( 6 km)
Ceiling: at least 12,000 feet AGL
Clouds: sky clear below 12,000 feet AGL
Weather: no significant weather observed at this time

METAR text: UTDK 291230Z VRB01MPS 6000 NSC 14/M02 Q1028 R01/09//70 RMK QFE713/0950
Conditions at: UTDK (KOLUB , TJ) observed 1230 UTC 29 October 2020
Temperature: 14.0°C (57°F)
Dewpoint: -2.0°C (28°F) [RH = 33%]
Pressure (altimeter): 30.35 inches Hg (1028.0 mb)
Winds: variable direction winds at 2 MPH (2 knots; 1.0 m/s)
Visibility: 4 miles ( 6 km)
Ceiling: at least 12,000 feet AGL
Clouds: sky clear below 12,000 feet AGL
Weather: no significant weather observed at this time

METAR text: UTDK 291200Z 24002MPS 6000 NSC 15/M02 Q1028 R01/09//70 RMK QFE713/0950
Conditions at: UTDK (KOLUB , TJ) observed 1200 UTC 29 October 2020
Temperature: 15.0°C (59°F)
Dewpoint: -2.0°C (28°F) [RH = 31%]
Pressure (altimeter): 30.35 inches Hg (1028.0 mb)
Winds: from the WSW (240 degrees) at 5 MPH (4 knots; 2.1 m/s)
Visibility: 4 miles ( 6 km)
Ceiling: at least 12,000 feet AGL
Clouds: sky clear below 12,000 feet AGL
Weather: no significant weather observed at this time

METAR text: UTDK 291130Z 23002MPS 6000 NSC 16/M03 Q1028 R01/09//70 RMK QFE713/0950
Conditions at: UTDK (KOLUB , TJ) observed 1130 UTC 29 October 2020
Temperature: 16.0°C (61°F)
Dewpoint: -3.0°C (27°F) [RH = 27%]
Pressure (altimeter): 30.35 inches Hg (1028.0 mb)
Winds: from the SW (230 degrees) at 5 MPH (4 knots; 2.1 m/s)
Visibility: 4 miles ( 6 km)
Ceiling: at least 12,000 feet AGL
Clouds: sky clear below 12,000 feet AGL
Weather: no significant weather observed at this time

METAR text: UTDK 291100Z VRB02MPS 6000 NSC 17/M03 Q1028 R01/09//70 RMK QFE713/0951
Conditions at: UTDK (KOLUB , TJ) observed 1100 UTC 29 October 2020
Temperature: 17.0°C (63°F)
Dewpoint: -3.0°C (27°F) [RH = 25%]
Pressure (altimeter): 30.35 inches Hg (1028.0 mb)
Winds: variable direction winds at 5 MPH (4 knots; 2.1 m/s)
Visibility: 4 miles ( 6 km)
Ceiling: at least 12,000 feet AGL
Clouds: sky clear below 12,000 feet AGL
Weather: no significant weather observed at this time

METAR text: UTDK 291030Z VRB02MPS 6000 NSC 17/M03 Q1028 R01/09//70 RMK QFE713/0951
Conditions at: UTDK (KOLUB , TJ) observed 1030 UTC 29 October 2020
Temperature: 17.0°C (63°F)
Dewpoint: -3.0°C (27°F) [RH = 25%]
Pressure (altimeter): 30.35 inches Hg (1028.0 mb)
Winds: variable direction winds at 5 MPH (4 knots; 2.1 m/s)
Visibility: 4 miles ( 6 km)
Ceiling: at least 12,000 feet AGL
Clouds: sky clear below 12,000 feet AGL
Weather: no significant weather observed at this time

METAR text: UTDK 291000Z VRB02MPS 6000 NSC 17/M03 Q1028 R01/09//70 RMK QFE713/0951
Conditions at: UTDK (KOLUB , TJ) observed 1000 UTC 29 October 2020
Temperature: 17.0°C (63°F)
Dewpoint: -3.0°C (27°F) [RH = 25%]
Pressure (altimeter): 30.35 inches Hg (1028.0 mb)
Winds: variable direction winds at 5 MPH (4 knots; 2.1 m/s)
Visibility: 4 miles ( 6 km)
Ceiling: at least 12,000 feet AGL
Clouds: sky clear below 12,000 feet AGL
Weather: no significant weather observed at this time

METAR text: UTDK 290930Z VRB02MPS 6000 NSC 17/M03 Q1029 R01/09//70 RMK QFE713/0951
Conditions at: UTDK (KOLUB , TJ) observed 0930 UTC 29 October 2020
Temperature: 17.0°C (63°F)
Dewpoint: -3.0°C (27°F) [RH = 25%]
Pressure (altimeter): 30.38 inches Hg (1029.0 mb)
Winds: variable direction winds at 5 MPH (4 knots; 2.1 m/s)
Visibility: 4 miles ( 6 km)
Ceiling: at least 12,000 feet AGL
Clouds: sky clear below 12,000 feet AGL
Weather: no significant weather observed at this time

METAR text: UTDK 290900Z VRB02MPS 6000 NSC 17/M03 Q1029 R01/09//70 RMK QFE714/0951
Conditions at: UTDK (KOLUB , TJ) observed 0900 UTC 29 October 2020
Temperature: 17.0°C (63°F)
Dewpoint: -3.0°C (27°F) [RH = 25%]
Pressure (altimeter): 30.38 inches Hg (1029.0 mb)
Winds: variable direction winds at 5 MPH (4 knots; 2.1 m/s)
Visibility: 4 miles ( 6 km)
Ceiling: at least 12,000 feet AGL
Clouds: sky clear below 12,000 feet AGL
Weather: no significant weather observed at this time

METAR text: UTDK 290830Z VRB01MPS 6000 NSC 17/M04 Q1030 R01/09//70 RMK QFE714/0952
Conditions at: UTDK (KOLUB , TJ) observed 0830 UTC 29 October 2020
Temperature: 17.0°C (63°F)
Dewpoint: -4.0°C (25°F) [RH = 23%]
Pressure (altimeter): 30.41 inches Hg (1030.0 mb)
Winds: variable direction winds at 2 MPH (2 knots; 1.0 m/s)
Visibility: 4 miles ( 6 km)
Ceiling: at least 12,000 feet AGL
Clouds: sky clear below 12,000 feet AGL
Weather: no significant weather observed at this time

METAR text: UTDK 290800Z VRB02MPS 6000 NSC 16/M03 Q1030 R01/09//70 RMK QFE714/0952
Conditions at: UTDK (KOLUB , TJ) observed 0800 UTC 29 October 2020
Temperature: 16.0°C (61°F)
Dewpoint: -3.0°C (27°F) [RH = 27%]
Pressure (altimeter): 30.41 inches Hg (1030.0 mb)
Winds: variable direction winds at 5 MPH (4 knots; 2.1 m/s)
Visibility: 4 miles ( 6 km)
Ceiling: at least 12,000 feet AGL
Clouds: sky clear below 12,000 feet AGL
Weather: no significant weather observed at this time

METAR text: UTDK 290730Z VRB02MPS 6000 NSC 15/M03 Q1031 R01/09//70 RMK QFE715/0953
Conditions at: UTDK (KOLUB , TJ) observed 0730 UTC 29 October 2020
Temperature: 15.0°C (59°F)
Dewpoint: -3.0°C (27°F) [RH = 29%]
Pressure (altimeter): 30.44 inches Hg (1031.0 mb)
Winds: variable direction winds at 5 MPH (4 knots; 2.1 m/s)
Visibility: 4 miles ( 6 km)
Ceiling: at least 12,000 feet AGL
Clouds: sky clear below 12,000 feet AGL
Weather: no significant weather observed at this time

METAR text: UTDK 290700Z VRB02MPS 6000 NSC 14/M03 Q1031 R01/09//70 RMK QFE715/0953
Conditions at: UTDK (KOLUB , TJ) observed 0700 UTC 29 October 2020
Temperature: 14.0°C (57°F)
Dewpoint: -3.0°C (27°F) [RH = 31%]
Pressure (altimeter): 30.44 inches Hg (1031.0 mb)
Winds: variable direction winds at 5 MPH (4 knots; 2.1 m/s)
Visibility: 4 miles ( 6 km)
Ceiling: at least 12,000 feet AGL
Clouds: sky clear below 12,000 feet AGL
Weather: no significant weather observed at this time

METAR text: UTDK 290630Z VRB02MPS 6000 NSC 14/M03 Q1032 R01/09//70 RMK QFE715/0954
Conditions at: UTDK (KOLUB , TJ) observed 0630 UTC 29 October 2020
Temperature: 14.0°C (57°F)
Dewpoint: -3.0°C (27°F) [RH = 31%]
Pressure (altimeter): 30.47 inches Hg (1032.0 mb)
Winds: variable direction winds at 5 MPH (4 knots; 2.1 m/s)
Visibility: 4 miles ( 6 km)
Ceiling: at least 12,000 feet AGL
Clouds: sky clear below 12,000 feet AGL
Weather: no significant weather observed at this time

METAR text: UTDK 290600Z VRB02MPS 6000 NSC 13/M03 Q1032 R01/09//70 RMK QFE715/0954
Conditions at: UTDK (KOLUB , TJ) observed 0600 UTC 29 October 2020
Temperature: 13.0°C (55°F)
Dewpoint: -3.0°C (27°F) [RH = 33%]
Pressure (altimeter): 30.47 inches Hg (1032.0 mb)
Winds: variable direction winds at 5 MPH (4 knots; 2.1 m/s)
Visibility: 4 miles ( 6 km)
Ceiling: at least 12,000 feet AGL
Clouds: sky clear below 12,000 feet AGL
Weather: no significant weather observed at this time

METAR text: UTDK 290530Z VRB02MPS 6000 NSC 13/M02 Q1032 R01/09//70 RMK QFE716/0954
Conditions at: UTDK (KOLUB , TJ) observed 0530 UTC 29 October 2020
Temperature: 13.0°C (55°F)
Dewpoint: -2.0°C (28°F) [RH = 35%]
Pressure (altimeter): 30.47 inches Hg (1032.0 mb)
Winds: variable direction winds at 5 MPH (4 knots; 2.1 m/s)
Visibility: 4 miles ( 6 km)
Ceiling: at least 12,000 feet AGL
Clouds: sky clear below 12,000 feet AGL
Weather: no significant weather observed at this time

METAR text: UTDK 290500Z VRB02MPS 6000 NSC 12/M03 Q1032 R01/09//70 RMK QFE716/0954
Conditions at: UTDK (KOLUB , TJ) observed 0500 UTC 29 October 2020
Temperature: 12.0°C (54°F)
Dewpoint: -3.0°C (27°F) [RH = 35%]
Pressure (altimeter): 30.47 inches Hg (1032.0 mb)
Winds: variable direction winds at 5 MPH (4 knots; 2.1 m/s)
Visibility: 4 miles ( 6 km)
Ceiling: at least 12,000 feet AGL
Clouds: sky clear below 12,000 feet AGL
Weather: no significant weather observed at this time

METAR text: UTDK 290430Z VRB02MPS 6000 NSC 11/M02 Q1032 R01/09//70 RMK QFE716/0954
Conditions at: UTDK (KOLUB , TJ) observed 0430 UTC 29 October 2020
Temperature: 11.0°C (52°F)
Dewpoint: -2.0°C (28°F) [RH = 40%]
Pressure (altimeter): 30.47 inches Hg (1032.0 mb)
Winds: variable direction winds at 5 MPH (4 knots; 2.1 m/s)
Visibility: 4 miles ( 6 km)
Ceiling: at least 12,000 feet AGL
Clouds: sky clear below 12,000 feet AGL
Weather: no significant weather observed at this time

METAR text: UTDK 290400Z VRB01MPS 6000 NSC 11/M02 Q1032 R01/09//70 RMK QFE716/0954
Conditions at: UTDK (KOLUB , TJ) observed 0400 UTC 29 October 2020
Temperature: 11.0°C (52°F)
Dewpoint: -2.0°C (28°F) [RH = 40%]
Pressure (altimeter): 30.47 inches Hg (1032.0 mb)
Winds: variable direction winds at 2 MPH (2 knots; 1.0 m/s)
Visibility: 4 miles ( 6 km)
Ceiling: at least 12,000 feet AGL
Clouds: sky clear below 12,000 feet AGL
Weather: no significant weather observed at this time

METAR text: UTDK 290330Z 04001MPS 6000 NSC 10/M03 Q1032 R01/09//70 RMK QFE715/0954
Conditions at: UTDK (KOLUB , TJ) observed 0330 UTC 29 October 2020
Temperature: 10.0°C (50°F)
Dewpoint: -3.0°C (27°F) [RH = 40%]
Pressure (altimeter): 30.47 inches Hg (1032.0 mb)
Winds: from the NE (40 degrees) at 2 MPH (2 knots; 1.0 m/s)
Visibility: 4 miles ( 6 km)
Ceiling: at least 12,000 feet AGL
Clouds: sky clear below 12,000 feet AGL
Weather: no significant weather observed at this time

METAR text: UTDK 290300Z 03003MPS 6000 NSC 08/M02 Q1031 R01/09//70 RMK QFE715/0954
Conditions at: UTDK (KOLUB , TJ) observed 0300 UTC 29 October 2020
Temperature: 8.0°C (46°F)
Dewpoint: -2.0°C (28°F) [RH = 49%]
Pressure (altimeter): 30.44 inches Hg (1031.0 mb)
Winds: from the NNE (30 degrees) at 7 MPH (6 knots; 3.1 m/s)
Visibility: 4 miles ( 6 km)
Ceiling: at least 12,000 feet AGL
Clouds: sky clear below 12,000 feet AGL
Weather: no significant weather observed at this time

METAR text: UTDK 290230Z 01003MPS 6000 NSC 07/M02 Q1031 R01/09//70 RMK QFE715/0954
Conditions at: UTDK (KOLUB , TJ) observed 0230 UTC 29 October 2020
Temperature: 7.0°C (45°F)
Dewpoint: -2.0°C (28°F) [RH = 53%]
Pressure (altimeter): 30.44 inches Hg (1031.0 mb)
Winds: from the N (10 degrees) at 7 MPH (6 knots; 3.1 m/s)
Visibility: 4 miles ( 6 km)
Ceiling: at least 12,000 feet AGL
Clouds: sky clear below 12,000 feet AGL
Weather: no significant weather observed at this time

METAR text: UTDK 290200Z 04002MPS 5000 HZ NSC 06/M02 Q1031 R01/09//70 RMK QFE715/0953
Conditions at: UTDK (KOLUB , TJ) observed 0200 UTC 29 October 2020
Temperature: 6.0°C (43°F)
Dewpoint: -2.0°C (28°F) [RH = 56%]
Pressure (altimeter): 30.44 inches Hg (1031.0 mb)
Winds: from the NE (40 degrees) at 5 MPH (4 knots; 2.1 m/s)
Visibility: 3 miles ( 5 km)
Ceiling: at least 12,000 feet AGL
Clouds: sky clear below 12,000 feet AGL
Weather: HZ  (haze)

METAR text: UTDK 290130Z 02003MPS 7000 NSC 07/M02 Q1031 R01/09//70 RMK QFE715/0953
Conditions at: UTDK (KOLUB , TJ) observed 0130 UTC 29 October 2020
Temperature: 7.0°C (45°F)
Dewpoint: -2.0°C (28°F) [RH = 53%]
Pressure (altimeter): 30.44 inches Hg (1031.0 mb)
Winds: from the NNE (20 degrees) at 7 MPH (6 knots; 3.1 m/s)
Visibility: 4 miles ( 7 km)
Ceiling: at least 12,000 feet AGL
Clouds: sky clear below 12,000 feet AGL
Weather: no significant weather observed at this time

METAR text: UTDK 290100Z 02003MPS 6000 NSC 07/M02 Q1031 R01/09//70 RMK QFE715/0953
Conditions at: UTDK (KOLUB , TJ) observed 0100 UTC 29 October 2020
Temperature: 7.0°C (45°F)
Dewpoint: -2.0°C (28°F) [RH = 53%]
Pressure (altimeter): 30.44 inches Hg (1031.0 mb)
Winds: from the NNE (20 degrees) at 7 MPH (6 knots; 3.1 m/s)
Visibility: 4 miles ( 6 km)
Ceiling: at least 12,000 feet AGL
Clouds: sky clear below 12,000 feet AGL
Weather: no significant weather observed at this time

METAR text: UTDK 290030Z 02003MPS 7000 NSC 08/M02 Q1031 R01/09//70 RMK QFE715/0953
Conditions at: UTDK (KOLUB , TJ) observed 0030 UTC 29 October 2020
Temperature: 8.0°C (46°F)
Dewpoint: -2.0°C (28°F) [RH = 49%]
Pressure (altimeter): 30.44 inches Hg (1031.0 mb)
Winds: from the NNE (20 degrees) at 7 MPH (6 knots; 3.1 m/s)
Visibility: 4 miles ( 7 km)
Ceiling: at least 12,000 feet AGL
Clouds: sky clear below 12,000 feet AGL
Weather: no significant weather observed at this time

METAR text: UTDK 290000Z 01004MPS 7000 OVC032 08/M01 Q1031 R01/09//70 RMK QFE715/0953
Conditions at: UTDK (KOLUB , TJ) observed 0000 UTC 29 October 2020
Temperature: 8.0°C (46°F)
Dewpoint: -1.0°C (30°F) [RH = 53%]
Pressure (altimeter): 30.44 inches Hg (1031.0 mb)
Winds: from the N (10 degrees) at 9 MPH (8 knots; 4.1 m/s)
Visibility: 4 miles ( 7 km)
Ceiling: 3200 feet AGL
Clouds: overcast cloud deck at 3200 feet AGL
Weather: no significant weather observed at this time

METAR text: UTDK 282330Z 03002MPS 7000 SCT031 08/M02 Q1030 R01/09//70 RMK QFE715/0953
Conditions at: UTDK (KOLUB , TJ) observed 2330 UTC 28 October 2020
Temperature: 8.0°C (46°F)
Dewpoint: -2.0°C (28°F) [RH = 49%]
Pressure (altimeter): 30.41 inches Hg (1030.0 mb)
Winds: from the NNE (30 degrees) at 5 MPH (4 knots; 2.1 m/s)
Visibility: 4 miles ( 7 km)
Ceiling: at least 12,000 feet AGL
Clouds: scattered clouds at 3100 feet AGL
Weather: no significant weather observed at this time

METAR text: UTDK 282300Z 02003MPS 7000 BKN030 08/M02 Q1031 R01/09//70 RMK QFE715/0953
Conditions at: UTDK (KOLUB , TJ) observed 2300 UTC 28 October 2020
Temperature: 8.0°C (46°F)
Dewpoint: -2.0°C (28°F) [RH = 49%]
Pressure (altimeter): 30.44 inches Hg (1031.0 mb)
Winds: from the NNE (20 degrees) at 7 MPH (6 knots; 3.1 m/s)
Visibility: 4 miles ( 7 km)
Ceiling: 3000 feet AGL
Clouds: broken clouds at 3000 feet AGL
Weather: no significant weather observed at this time

METAR text: UTDK 282230Z 02003MPS 7000 BKN030 08/M01 Q1031 R01/09//70 RMK QFE715/0953
Conditions at: UTDK (KOLUB , TJ) observed 2230 UTC 28 October 2020
Temperature: 8.0°C (46°F)
Dewpoint: -1.0°C (30°F) [RH = 53%]
Pressure (altimeter): 30.44 inches Hg (1031.0 mb)
Winds: from the NNE (20 degrees) at 7 MPH (6 knots; 3.1 m/s)
Visibility: 4 miles ( 7 km)
Ceiling: 3000 feet AGL
Clouds: broken clouds at 3000 feet AGL
Weather: no significant weather observed at this time

METAR text: UTDK 282200Z 01003MPS 7000 BKN030 09/M01 Q1031 R01/09//70 RMK QFE715/0953
Conditions at: UTDK (KOLUB , TJ) observed 2200 UTC 28 October 2020
Temperature: 9.0°C (48°F)
Dewpoint: -1.0°C (30°F) [RH = 49%]
Pressure (altimeter): 30.44 inches Hg (1031.0 mb)
Winds: from the N (10 degrees) at 7 MPH (6 knots; 3.1 m/s)
Visibility: 4 miles ( 7 km)
Ceiling: 3000 feet AGL
Clouds: broken clouds at 3000 feet AGL
Weather: no significant weather observed at this time

METAR text: UTDK 282130Z 04002MPS 7000 BKN030 09/M01 Q1030 R01/09//70 RMK QFE715/0953
Conditions at: UTDK (KOLUB , TJ) observed 2130 UTC 28 October 2020
Temperature: 9.0°C (48°F)
Dewpoint: -1.0°C (30°F) [RH = 49%]
Pressure (altimeter): 30.41 inches Hg (1030.0 mb)
Winds: from the NE (40 degrees) at 5 MPH (4 knots; 2.1 m/s)
Visibility: 4 miles ( 7 km)
Ceiling: 3000 feet AGL
Clouds: broken clouds at 3000 feet AGL
Weather: no significant weather observed at this time

METAR text: UTDK 282100Z 03002MPS 7000 OVC029 10/M02 Q1031 R01/09//70 RMK QFE715/0953
Conditions at: UTDK (KOLUB , TJ) observed 2100 UTC 28 October 2020
Temperature: 10.0°C (50°F)
Dewpoint: -2.0°C (28°F) [RH = 43%]
Pressure (altimeter): 30.44 inches Hg (1031.0 mb)
Winds: from the NNE (30 degrees) at 5 MPH (4 knots; 2.1 m/s)
Visibility: 4 miles ( 7 km)
Ceiling: 2900 feet AGL
Clouds: overcast cloud deck at 2900 feet AGL
Weather: no significant weather observed at this time

METAR text: UTDK 282030Z VRB02MPS 7000 OVC029 10/M01 Q1031 R01/09//70 RMK QFE715/0953
Conditions at: UTDK (KOLUB , TJ) observed 2030 UTC 28 October 2020
Temperature: 10.0°C (50°F)
Dewpoint: -1.0°C (30°F) [RH = 46%]
Pressure (altimeter): 30.44 inches Hg (1031.0 mb)
Winds: variable direction winds at 5 MPH (4 knots; 2.1 m/s)
Visibility: 4 miles ( 7 km)
Ceiling: 2900 feet AGL
Clouds: overcast cloud deck at 2900 feet AGL
Weather: no significant weather observed at this time

METAR text: UTDK 282000Z VRB01MPS 7000 OVC028 10/M01 Q1030 R01/09//70 RMK QFE715/0953
Conditions at: UTDK (KOLUB , TJ) observed 2000 UTC 28 October 2020
Temperature: 10.0°C (50°F)
Dewpoint: -1.0°C (30°F) [RH = 46%]
Pressure (altimeter): 30.41 inches Hg (1030.0 mb)
Winds: variable direction winds at 2 MPH (2 knots; 1.0 m/s)
Visibility: 4 miles ( 7 km)
Ceiling: 2800 feet AGL
Clouds: overcast cloud deck at 2800 feet AGL
Weather: no significant weather observed at this time

Forecast for: UTDK (KOLUB , TJ)
Text: TAF UTDK 300300Z 3004/3013 VRB02MPS 6000 NSC
Forecast period: 0400 to 1300 UTC 30 October 2020
Forecast type: FROM: standard forecast or significant change
Winds: variable direction winds at 5 MPH (4 knots; 2.1 m/s)
Visibility: 4 miles (6 km)
Ceiling: unknown
Clouds: missing
Weather: no significant weather forecast for this period
Text: TEMPO 3006/3013 20006MPS
Forecast period: 0600 to 1300 UTC 30 October 2020
Forecast type: TEMPORARY: The following changes expected for less than half the time period
Winds: from the SSW (200 degrees) at 14 MPH (12 knots; 6.2 m/s)
Visibility: missing
Ceiling: unknown
Clouds: missing
Weather: no significant weather forecast for this period